createdAt,value
2022-11-07T00:00:18.220Z,1011.374546
2022-11-07T00:05:18.191Z,1011.437144
2022-11-07T00:10:18.078Z,1011.434214
2022-11-07T00:15:18.140Z,1011.325656
2022-11-07T00:20:17.992Z,1011.354156
2022-11-07T00:25:17.941Z,1011.375527
2022-11-07T00:30:17.858Z,1011.306967
2022-11-07T00:35:17.905Z,1011.271606
2022-11-07T00:40:18.012Z,1011.324055
2022-11-07T00:45:22.856Z,1011.294405
2022-11-07T00:50:17.905Z,1011.376089
2022-11-07T00:55:17.881Z,1011.267667
2022-11-07T01:00:18.087Z,1011.270140
2022-11-07T01:05:17.781Z,1011.146907
2022-11-07T01:10:18.027Z,1011.021695
2022-11-07T01:15:17.901Z,1010.885774
2022-11-07T01:20:17.881Z,1010.661240
2022-11-07T01:25:17.797Z,1010.678032
2022-11-07T01:30:17.841Z,1010.763589
2022-11-07T01:35:17.808Z,1010.974816
2022-11-07T01:40:17.750Z,1011.116914
2022-11-07T01:45:18.111Z,1011.322163
2022-11-07T01:50:17.992Z,1011.406494
2022-11-07T01:55:17.880Z,1011.413594
2022-11-07T02:00:17.891Z,1011.513405
2022-11-07T02:05:18.227Z,1011.497504
2022-11-07T02:10:17.834Z,1011.484985
2022-11-07T02:15:17.992Z,1011.435688
2022-11-07T02:20:18.447Z,1011.467707
2022-11-07T02:25:18.823Z,1011.412593
2022-11-07T02:30:17.960Z,1011.454996
2022-11-07T02:35:17.865Z,1011.510847
2022-11-07T02:40:17.793Z,1011.521399
2022-11-07T02:45:17.816Z,1011.616759
2022-11-07T02:50:17.961Z,1011.705422
2022-11-07T02:55:17.818Z,1011.750010
2022-11-07T03:00:17.914Z,1011.804633
2022-11-07T03:05:17.974Z,1011.901955
2022-11-07T03:10:17.906Z,1012.095594
2022-11-07T03:15:17.806Z,1012.220967
2022-11-07T03:20:17.758Z,1012.288590
2022-11-07T03:25:18.164Z,1012.278525
2022-11-07T03:30:17.804Z,1012.380343
2022-11-07T03:35:17.941Z,1012.486947
2022-11-07T03:40:17.876Z,1012.463725
2022-11-07T03:45:17.894Z,1012.537257
2022-11-07T03:50:17.918Z,1012.610513
2022-11-07T03:55:18.349Z,1012.679163
2022-11-07T04:00:17.940Z,1012.686661
2022-11-07T04:05:17.920Z,1012.680899
2022-11-07T04:15:18.017Z,1012.910899
2022-11-07T04:20:17.809Z,1012.964636
2022-11-07T04:25:18.053Z,1012.989644
2022-11-07T04:30:18.369Z,1013.001341
2022-11-07T04:35:18.195Z,1012.940826
2022-11-07T04:40:17.803Z,1012.975268
2022-11-07T04:45:18.269Z,1012.991506
2022-11-07T04:50:17.764Z,1012.991212
2022-11-07T04:55:17.816Z,1012.968392
2022-11-07T05:00:17.784Z,1013.007411
2022-11-07T05:05:17.786Z,1013.060034
2022-11-07T05:10:17.734Z,1013.039128
2022-11-07T05:15:17.774Z,1013.038792
2022-11-07T05:20:17.799Z,1013.040406
2022-11-07T05:25:17.798Z,1013.042780
2022-11-07T05:30:17.773Z,1013.083759
2022-11-07T05:35:17.760Z,1013.076068
2022-11-07T05:40:17.786Z,1013.082963
2022-11-07T05:45:17.897Z,1013.136804
2022-11-07T05:50:17.736Z,1013.206412
2022-11-07T05:55:17.818Z,1013.318908
2022-11-07T06:00:17.701Z,1013.342571
2022-11-07T06:05:23.054Z,1013.318936
2022-11-07T06:10:18.108Z,1013.298404
2022-11-07T06:15:17.747Z,1013.248212
2022-11-07T06:20:17.960Z,1013.241931
2022-11-07T06:25:17.714Z,1013.296615
2022-11-07T06:30:17.716Z,1013.358848
2022-11-07T06:35:17.822Z,1013.440274
2022-11-07T06:40:17.702Z,1013.539099
2022-11-07T06:45:17.718Z,1013.621157
2022-11-07T06:50:18.074Z,1013.685638
2022-11-07T06:55:18.179Z,1013.728502
2022-11-07T07:00:17.993Z,1013.841905
2022-11-07T07:05:21.125Z,1013.908178
2022-11-07T07:10:17.708Z,1013.978435
2022-11-07T07:15:18.323Z,1014.055382
2022-11-07T07:20:17.859Z,1014.028419
2022-11-07T07:25:17.928Z,1014.008598
2022-11-07T07:30:17.982Z,1014.014746
2022-11-07T07:35:17.883Z,1013.967708
2022-11-07T07:40:17.727Z,1013.927707
2022-11-07T07:45:17.747Z,1013.876527
2022-11-07T07:50:17.719Z,1013.865156
2022-11-07T07:55:17.705Z,1013.874245
2022-11-07T08:00:17.694Z,1013.882252
2022-11-07T08:05:18.105Z,1013.917457
2022-11-07T08:10:40.794Z,1013.920390
2022-11-07T08:15:17.721Z,1013.949392
2022-11-07T08:20:17.817Z,1013.959029
2022-11-07T08:25:18.102Z,1013.994774
2022-11-07T08:30:18.451Z,1013.954792
2022-11-07T08:35:17.734Z,1013.899968
2022-11-07T08:40:17.668Z,1013.875290
2022-11-07T08:45:17.724Z,1013.772262
2022-11-07T08:50:17.746Z,1013.783121
2022-11-07T08:55:17.694Z,1013.808556
2022-11-07T09:00:17.621Z,1013.784310
2022-11-07T09:05:17.807Z,1013.803697
2022-11-07T09:10:18.026Z,1013.783391
2022-11-07T09:15:17.856Z,1013.817065
2022-11-07T09:20:17.962Z,1013.775244
2022-11-07T09:25:17.781Z,1013.817160
2022-11-07T09:30:17.711Z,1013.874130
2022-11-07T09:35:17.940Z,1013.910514
2022-11-07T09:40:17.706Z,1013.911114
2022-11-07T09:45:17.786Z,1013.906315
2022-11-07T09:50:17.914Z,1013.888608
2022-11-07T09:55:17.788Z,1013.920722
2022-11-07T10:00:17.685Z,1013.922333
2022-11-07T10:05:17.679Z,1013.970646
2022-11-07T10:10:18.095Z,1013.998583
2022-11-07T10:15:17.986Z,1014.076810
2022-11-07T10:20:22.006Z,1014.094879
2022-11-07T10:25:17.665Z,1014.054049
2022-11-07T10:30:17.691Z,1014.018621
2022-11-07T10:35:17.838Z,1014.018865
2022-11-07T10:40:17.722Z,1014.037454
2022-11-07T10:45:17.815Z,1014.050781
2022-11-07T10:50:17.961Z,1014.036385
2022-11-07T10:55:17.705Z,1014.051830
2022-11-07T11:00:17.733Z,1014.002812
2022-11-07T11:05:17.719Z,1013.970471
2022-11-07T11:10:17.648Z,1013.944274
2022-11-07T11:15:17.668Z,1013.912594
2022-11-07T11:20:17.704Z,1013.896757
2022-11-07T11:25:17.784Z,1013.874008
2022-11-07T11:30:17.980Z,1013.840468
2022-11-07T11:35:17.664Z,1013.836859
2022-11-07T11:40:17.647Z,1013.776249
2022-11-07T11:45:17.907Z,1013.794888
2022-11-07T11:50:17.892Z,1013.815862
2022-11-07T11:55:17.746Z,1013.830429
2022-11-07T12:00:17.592Z,1013.854870
2022-11-07T12:05:17.620Z,1013.849675
2022-11-07T12:10:17.666Z,1013.913038
2022-11-07T12:15:17.670Z,1013.893816
2022-11-07T12:20:17.923Z,1013.866451
2022-11-07T12:25:17.663Z,1013.850049
2022-11-07T12:30:17.651Z,1013.840430
2022-11-07T12:35:18.052Z,1013.889354
2022-11-07T12:40:17.919Z,1013.923943
2022-11-07T12:45:17.635Z,1013.926424
2022-11-07T12:50:17.627Z,1013.872639
2022-11-07T12:55:17.731Z,1013.866647
2022-11-07T13:00:17.586Z,1013.880585
2022-11-07T13:05:17.978Z,1013.882439
2022-11-07T13:10:17.559Z,1013.849734
2022-11-07T13:15:17.702Z,1013.836025
2022-11-07T13:20:17.565Z,1013.827947
2022-11-07T13:25:17.831Z,1013.844245
2022-11-07T13:30:17.638Z,1013.867641
2022-11-07T13:35:17.701Z,1013.929985
2022-11-07T13:40:17.560Z,1013.950134
2022-11-07T13:45:17.622Z,1013.933551
2022-11-07T13:50:17.565Z,1013.943327
2022-11-07T13:55:17.541Z,1014.015702
2022-11-07T14:00:17.714Z,1014.060411
2022-11-07T14:05:18.449Z,1014.084490
2022-11-07T14:10:17.583Z,1014.116942
2022-11-07T14:15:17.613Z,1014.040014
2022-11-07T14:20:17.607Z,1014.016872
2022-11-07T14:25:17.835Z,1013.980367
2022-11-07T14:30:17.626Z,1013.969717
2022-11-07T14:35:17.975Z,1013.983817
2022-11-07T14:40:17.652Z,1014.004616
2022-11-07T14:45:33.048Z,1013.986298
2022-11-07T14:50:18.025Z,1013.927992
2022-11-07T14:55:18.160Z,1013.850996
2022-11-07T15:00:17.746Z,1013.801194
2022-11-07T15:05:17.605Z,1013.839643
2022-11-07T15:10:23.434Z,1013.907564
2022-11-07T15:15:17.538Z,1013.917181
2022-11-07T15:20:17.554Z,1013.913712
2022-11-07T15:25:17.635Z,1013.919563
2022-11-07T15:30:17.725Z,1013.926934
2022-11-07T15:35:42.541Z,1013.940095
2022-11-07T15:40:17.552Z,1013.899152
2022-11-07T15:45:17.537Z,1013.816089
2022-11-07T15:50:17.641Z,1013.788352
2022-11-07T15:55:17.576Z,1013.755942
2022-11-07T16:00:17.545Z,1013.761651
2022-11-07T16:05:17.650Z,1013.842059
2022-11-07T16:10:17.642Z,1013.838338
2022-11-07T16:15:17.570Z,1013.851731
2022-11-07T16:20:18.107Z,1013.884160
2022-11-07T16:25:21.799Z,1013.965681
2022-11-07T16:30:18.032Z,1014.024991
2022-11-07T16:35:17.810Z,1014.079510
2022-11-07T16:40:17.540Z,1014.065638
2022-11-07T16:45:17.703Z,1014.138864
2022-11-07T16:50:17.653Z,1014.151128
2022-11-07T16:55:17.546Z,1014.180766
2022-11-07T17:00:17.535Z,1014.255657
2022-11-07T17:05:17.544Z,1014.336568
2022-11-07T17:10:17.563Z,1014.382744
2022-11-07T17:15:17.542Z,1014.410962
2022-11-07T17:20:34.271Z,1014.427391
2022-11-07T17:25:17.549Z,1014.423487
2022-11-07T17:30:17.518Z,1014.465423
2022-11-07T17:35:31.843Z,1014.443304
2022-11-07T17:40:18.005Z,1014.458640
2022-11-07T17:45:17.476Z,1014.495250
2022-11-07T17:50:17.680Z,1014.535259
2022-11-07T17:55:17.634Z,1014.581032
2022-11-07T18:00:17.816Z,1014.557573
2022-11-07T18:05:18.150Z,1014.535401
2022-11-07T18:10:17.801Z,1014.539063
2022-11-07T18:15:17.727Z,1014.491584
2022-11-07T18:20:17.496Z,1014.443266
2022-11-07T18:25:17.516Z,1014.488666
2022-11-07T18:30:17.628Z,1014.489916
2022-11-07T18:35:18.084Z,1014.449226
2022-11-07T18:40:17.762Z,1014.361630
2022-11-07T18:45:18.069Z,1014.312095
2022-11-07T18:50:17.793Z,1014.289411
2022-11-07T18:55:17.522Z,1014.315751
2022-11-07T19:00:17.489Z,1014.326597
2022-11-07T19:05:17.629Z,1014.419548
2022-11-07T19:10:17.443Z,1014.447444
2022-11-07T19:15:17.508Z,1014.473782
2022-11-07T19:20:17.697Z,1014.400138
2022-11-07T19:25:17.686Z,1014.449769
2022-11-07T19:30:17.640Z,1014.463734
2022-11-07T19:35:17.553Z,1014.426706
2022-11-07T19:40:17.506Z,1014.532590
2022-11-07T19:45:17.486Z,1014.620518
2022-11-07T19:50:17.451Z,1014.657795
2022-11-07T19:55:17.540Z,1014.606285
2022-11-07T20:00:17.524Z,1014.690915
2022-11-07T20:05:17.537Z,1014.714898
2022-11-07T20:10:17.429Z,1014.745253
2022-11-07T20:15:17.478Z,1014.770947
2022-11-07T20:20:17.459Z,1014.772060
2022-11-07T20:25:17.422Z,1014.807548
2022-11-07T20:30:17.505Z,1014.863279
2022-11-07T20:35:17.533Z,1014.901303
2022-11-07T20:40:17.529Z,1014.898753
2022-11-07T20:45:17.492Z,1014.938985
2022-11-07T20:50:18.295Z,1014.932204
2022-11-07T20:55:18.156Z,1014.946939
2022-11-07T21:00:17.500Z,1014.922035
2022-11-07T21:05:18.446Z,1014.963632
2022-11-07T21:10:17.502Z,1015.015984
2022-11-07T21:15:17.625Z,1015.066394
2022-11-07T21:20:17.503Z,1015.059606
2022-11-07T21:25:17.496Z,1015.092394
2022-11-07T21:30:17.514Z,1015.121538
2022-11-07T21:35:17.525Z,1015.101205
2022-11-07T21:40:17.440Z,1015.079008
2022-11-07T21:45:17.542Z,1015.065709
2022-11-07T21:50:38.371Z,1015.059693
2022-11-07T21:55:17.527Z,1015.045458
2022-11-07T22:00:17.443Z,1015.007588
2022-11-07T22:05:17.448Z,1014.962854
2022-11-07T22:10:17.425Z,1014.936337
2022-11-07T22:15:17.976Z,1014.939217
2022-11-07T22:20:17.925Z,1014.902505
2022-11-07T22:25:17.960Z,1014.902533
2022-11-07T22:30:17.772Z,1014.914987
2022-11-07T22:35:17.499Z,1014.928797
2022-11-07T22:40:20.271Z,1014.945406
2022-11-07T22:45:17.468Z,1014.920161
2022-11-07T22:50:17.911Z,1014.872125
2022-11-07T22:55:17.790Z,1014.854501
2022-11-07T23:00:21.849Z,1014.879323
2022-11-07T23:05:17.679Z,1014.800704
2022-11-07T23:10:17.535Z,1014.863564
2022-11-07T23:15:17.634Z,1014.860006
2022-11-07T23:20:17.586Z,1014.819002
2022-11-07T23:25:17.425Z,1014.783249
2022-11-07T23:30:17.438Z,1014.769352
2022-11-07T23:35:17.451Z,1014.784601
2022-11-07T23:40:17.540Z,1014.777655
2022-11-07T23:45:17.355Z,1014.790791
2022-11-07T23:50:17.443Z,1014.787828
2022-11-07T23:55:19.117Z,1014.787416
